sensor_id;sensor_type;location;lat;lon;timestamp;pressure;altitude;pressure_sealevel;temperature;humidity
70445;BME280;57902;49.638;11.070;2023-04-08T00:01:29;98430.16;;;3.67;92.37
70445;BME280;57902;49.638;11.070;2023-04-08T00:03:56;98429.34;;;3.60;91.53
70445;BME280;57902;49.638;11.070;2023-04-08T00:06:22;98435.28;;;3.53;92.78
70445;BME280;57902;49.638;11.070;2023-04-08T00:08:49;98429.31;;;3.48;91.55
70445;BME280;57902;49.638;11.070;2023-04-08T00:11:16;98435.25;;;3.44;92.27
70445;BME280;57902;49.638;11.070;2023-04-08T00:13:42;98431.84;;;3.43;91.08
70445;BME280;57902;49.638;11.070;2023-04-08T00:16:08;98427.59;;;3.38;89.87
70445;BME280;57902;49.638;11.070;2023-04-08T00:18:35;98437.78;;;3.35;89.96
70445;BME280;57902;49.638;11.070;2023-04-08T00:21:03;98431.00;;;3.30;88.82
70445;BME280;57902;49.638;11.070;2023-04-08T00:23:30;98436.09;;;3.30;89.22
70445;BME280;57902;49.638;11.070;2023-04-08T00:25:56;98436.94;;;3.20;87.95
70445;BME280;57902;49.638;11.070;2023-04-08T00:28:23;98432.66;;;3.16;89.02
70445;BME280;57902;49.638;11.070;2023-04-08T00:30:49;98441.97;;;3.15;88.68
70445;BME280;57902;49.638;11.070;2023-04-08T00:33:17;98438.59;;;3.17;87.62
70445;BME280;57902;49.638;11.070;2023-04-08T00:35:44;98436.03;;;3.15;87.16
70445;BME280;57902;49.638;11.070;2023-04-08T00:38:11;98441.16;;;3.17;86.89
70445;BME280;57902;49.638;11.070;2023-04-08T00:40:38;98437.75;;;3.10;85.93
70445;BME280;57902;49.638;11.070;2023-04-08T00:43:04;98445.34;;;2.99;87.11
70445;BME280;57902;49.638;11.070;2023-04-08T00:45:32;98446.16;;;2.96;89.25
70445;BME280;57902;49.638;11.070;2023-04-08T00:47:58;98448.75;;;3.00;88.00
70445;BME280;57902;49.638;11.070;2023-04-08T00:50:25;98450.44;;;3.02;87.67
70445;BME280;57902;49.638;11.070;2023-04-08T00:52:52;98447.88;;;2.97;87.73
70445;BME280;57902;49.638;11.070;2023-04-08T00:55:18;98447.88;;;2.97;87.87
70445;BME280;57902;49.638;11.070;2023-04-08T00:57:45;98456.41;;;3.00;87.77
70445;BME280;57902;49.638;11.070;2023-04-08T01:00:13;98461.44;;;2.93;87.98
70445;BME280;57902;49.638;11.070;2023-04-08T01:08:13;98458.06;;;3.02;88.13
70445;BME280;57902;49.638;11.070;2023-04-08T01:10:44;98451.31;;;3.06;88.27
70445;BME280;57902;49.638;11.070;2023-04-08T01:13:16;98451.31;;;3.06;88.83
70445;BME280;57902;49.638;11.070;2023-04-08T01:15:44;98445.38;;;3.10;88.18
70445;BME280;57902;49.638;11.070;2023-04-08T01:18:12;98453.03;;;3.11;87.93
70445;BME280;57902;49.638;11.070;2023-04-08T01:20:41;98450.50;;;3.14;88.58
70445;BME280;57902;49.638;11.070;2023-04-08T01:25:54;98452.22;;;3.19;89.23
70445;BME280;57902;49.638;11.070;2023-04-08T01:28:23;98453.88;;;3.21;89.24
70445;BME280;57902;49.638;11.070;2023-04-08T01:30:54;98460.69;;;3.24;88.07
70445;BME280;57902;49.638;11.070;2023-04-08T01:33:22;98457.31;;;3.28;89.17
70445;BME280;57902;49.638;11.070;2023-04-08T01:35:50;98458.16;;;3.31;89.02
70445;BME280;57902;49.638;11.070;2023-04-08T01:38:19;98451.38;;;3.30;89.20
70445;BME280;57902;49.638;11.070;2023-04-08T01:40:46;98455.63;;;3.35;90.05
70445;BME280;57902;49.638;11.070;2023-04-08T01:43:15;98456.47;;;3.35;91.36
70445;BME280;57902;49.638;11.070;2023-04-08T01:45:44;98449.69;;;3.39;91.45
70445;BME280;57902;49.638;11.070;2023-04-08T01:48:12;98453.09;;;3.44;91.03
70445;BME280;57902;49.638;11.070;2023-04-08T01:50:43;98451.41;;;3.46;91.14
70445;BME280;57902;49.638;11.070;2023-04-08T01:53:10;98451.41;;;3.46;90.29
70445;BME280;57902;49.638;11.070;2023-04-08T01:55:39;98456.50;;;3.52;90.34
70445;BME280;57902;49.638;11.070;2023-04-08T01:58:08;98454.81;;;3.54;89.79
70445;BME280;57902;49.638;11.070;2023-04-08T02:00:37;98454.81;;;3.57;90.04
70445;BME280;57902;49.638;11.070;2023-04-08T02:03:07;98459.09;;;3.63;89.67
70445;BME280;57902;49.638;11.070;2023-04-08T02:05:36;98456.53;;;3.69;89.35
70445;BME280;57902;49.638;11.070;2023-04-08T02:08:02;98456.53;;;3.71;90.48
70445;BME280;57902;49.638;11.070;2023-04-08T02:10:29;98459.09;;;3.71;90.49
70445;BME280;57902;49.638;11.070;2023-04-08T02:12:55;98459.91;;;3.73;90.59
70445;BME280;57902;49.638;11.070;2023-04-08T02:15:22;98464.19;;;3.72;89.60
70445;BME280;57902;49.638;11.070;2023-04-08T02:17:54;98459.09;;;3.71;89.16
70445;BME280;57902;49.638;11.070;2023-04-08T02:20:30;98465.00;;;3.74;89.48
70445;BME280;57902;49.638;11.070;2023-04-08T02:23:06;98456.53;;;3.71;89.44
70445;BME280;57902;49.638;11.070;2023-04-08T02:25:35;98459.91;;;3.71;89.08
70445;BME280;57902;49.638;11.070;2023-04-08T02:28:09;98459.91;;;3.77;90.17
70445;BME280;57902;49.638;11.070;2023-04-08T02:30:40;98465.88;;;3.81;90.50
70445;BME280;57902;49.638;11.070;2023-04-08T02:33:07;98465.06;;;3.79;90.31
70445;BME280;57902;49.638;11.070;2023-04-08T02:35:35;98471.81;;;3.80;90.73
70445;BME280;57902;49.638;11.070;2023-04-08T02:38:02;98478.63;;;3.82;91.17
70445;BME280;57902;49.638;11.070;2023-04-08T02:40:30;98473.53;;;3.81;91.00
70445;BME280;57902;49.638;11.070;2023-04-08T02:42:57;98475.25;;;3.85;90.68
70445;BME280;57902;49.638;11.070;2023-04-08T02:45:32;98482.91;;;3.88;91.52
70445;BME280;57902;49.638;11.070;2023-04-08T02:48:00;98478.63;;;3.90;91.86
70445;BME280;57902;49.638;11.070;2023-04-08T02:50:27;98481.19;;;3.92;91.15
70445;BME280;57902;49.638;11.070;2023-04-08T02:52:54;98469.28;;;3.94;90.78
70445;BME280;57902;49.638;11.070;2023-04-08T02:55:21;98488.00;;;3.94;90.59
70445;BME280;57902;49.638;11.070;2023-04-08T02:57:48;98479.50;;;3.95;90.75
70445;BME280;57902;49.638;11.070;2023-04-08T03:00:15;98472.69;;;3.94;91.65
70445;BME280;57902;49.638;11.070;2023-04-08T03:02:42;98480.34;;;3.88;91.31
70445;BME280;57902;49.638;11.070;2023-04-08T03:05:09;98482.91;;;3.85;90.91
70445;BME280;57902;49.638;11.070;2023-04-08T03:07:36;98491.38;;;3.85;91.61
70445;BME280;57902;49.638;11.070;2023-04-08T03:10:02;98489.69;;;3.88;90.74
70445;BME280;57902;49.638;11.070;2023-04-08T03:12:29;98484.56;;;3.86;90.23
70445;BME280;57902;49.638;11.070;2023-04-08T03:14:59;98485.44;;;3.80;90.07
70445;BME280;57902;49.638;11.070;2023-04-08T03:17:27;98483.72;;;3.81;90.50
70445;BME280;57902;49.638;11.070;2023-04-08T03:19:53;98490.53;;;3.80;90.58
70445;BME280;57902;49.638;11.070;2023-04-08T03:22:19;98489.69;;;3.81;90.51
70445;BME280;57902;49.638;11.070;2023-04-08T03:24:46;98485.44;;;3.82;90.76
70445;BME280;57902;49.638;11.070;2023-04-08T03:27:12;98487.97;;;3.77;90.09
70445;BME280;57902;49.638;11.070;2023-04-08T03:29:39;98485.44;;;3.79;90.62
70445;BME280;57902;49.638;11.070;2023-04-08T03:32:06;98487.13;;;3.77;90.40
70445;BME280;57902;49.638;11.070;2023-04-08T03:34:33;98489.69;;;3.81;90.75
70445;BME280;57902;49.638;11.070;2023-04-08T03:37:00;98494.78;;;3.81;90.25
70445;BME280;57902;49.638;11.070;2023-04-08T03:39:27;98496.50;;;3.79;91.01
70445;BME280;57902;49.638;11.070;2023-04-08T03:41:53;98495.66;;;3.80;90.92
70445;BME280;57902;49.638;11.070;2023-04-08T03:44:19;98497.31;;;3.81;90.63
70445;BME280;57902;49.638;11.070;2023-04-08T03:46:46;98502.44;;;3.83;89.89
70445;BME280;57902;49.638;11.070;2023-04-08T03:49:12;98500.75;;;3.80;89.89
70445;BME280;57902;49.638;11.070;2023-04-08T03:51:39;98491.38;;;3.84;89.99
70445;BME280;57902;49.638;11.070;2023-04-08T03:54:05;98495.66;;;3.85;90.53
70445;BME280;57902;49.638;11.070;2023-04-08T03:56:33;98500.75;;;3.90;90.99
70445;BME280;57902;49.638;11.070;2023-04-08T03:58:59;98496.47;;;3.92;90.15
70445;BME280;57902;49.638;11.070;2023-04-08T04:01:26;98493.09;;;3.93;90.25
70445;BME280;57902;49.638;11.070;2023-04-08T04:03:52;98493.94;;;3.92;89.77
70445;BME280;57902;49.638;11.070;2023-04-08T04:06:19;98501.59;;;3.93;90.32
70445;BME280;57902;49.638;11.070;2023-04-08T04:08:45;98501.63;;;3.99;90.04
70445;BME280;57902;49.638;11.070;2023-04-08T04:11:12;98503.28;;;4.02;90.47
70445;BME280;57902;49.638;11.070;2023-04-08T04:13:38;98510.94;;;4.03;90.40
70445;BME280;57902;49.638;11.070;2023-04-08T04:16:05;98510.09;;;4.03;89.26
70445;BME280;57902;49.638;11.070;2023-04-08T04:18:31;98509.25;;;3.99;89.11
70445;BME280;57902;49.638;11.070;2023-04-08T04:20:58;98516.91;;;3.99;89.14
70445;BME280;57902;49.638;11.070;2023-04-08T04:23:24;98514.38;;;4.02;89.43
70445;BME280;57902;49.638;11.070;2023-04-08T04:25:51;98515.19;;;4.06;90.63
70445;BME280;57902;49.638;11.070;2023-04-08T04:28:17;98517.75;;;4.05;89.05
70445;BME280;57902;49.638;11.070;2023-04-08T04:30:43;98517.75;;;4.08;89.23
70445;BME280;57902;49.638;11.070;2023-04-08T04:33:11;98523.69;;;4.05;88.61
70445;BME280;57902;49.638;11.070;2023-04-08T04:35:38;98524.56;;;4.06;88.87
70445;BME280;57902;49.638;11.070;2023-04-08T04:38:05;98525.41;;;4.01;88.78
70445;BME280;57902;49.638;11.070;2023-04-08T04:40:36;98528.81;;;4.10;89.54
70445;BME280;57902;49.638;11.070;2023-04-08T04:43:02;98527.13;;;4.13;89.48
70445;BME280;57902;49.638;11.070;2023-04-08T04:45:29;98527.94;;;4.11;89.06
70445;BME280;57902;49.638;11.070;2023-04-08T04:47:55;98525.41;;;4.11;89.64
70445;BME280;57902;49.638;11.070;2023-04-08T04:50:22;98527.94;;;4.14;90.12
70445;BME280;57902;49.638;11.070;2023-04-08T04:52:48;98537.31;;;4.18;89.84
70445;BME280;57902;49.638;11.070;2023-04-08T04:55:15;98534.75;;;4.15;89.73
70445;BME280;57902;49.638;11.070;2023-04-08T04:57:41;98538.16;;;4.08;90.34
70445;BME280;57902;49.638;11.070;2023-04-08T05:00:09;98542.41;;;4.02;89.40
70445;BME280;57902;49.638;11.070;2023-04-08T05:02:36;98534.75;;;3.96;89.41
70445;BME280;57902;49.638;11.070;2023-04-08T05:05:03;98533.91;;;3.88;90.60
70445;BME280;57902;49.638;11.070;2023-04-08T05:07:30;98543.25;;;3.94;90.46
70445;BME280;57902;49.638;11.070;2023-04-08T05:09:56;98537.31;;;3.98;90.02
70445;BME280;57902;49.638;11.070;2023-04-08T05:12:23;98544.97;;;3.99;90.28
70445;BME280;57902;49.638;11.070;2023-04-08T05:14:49;98549.19;;;4.07;90.97
70445;BME280;57902;49.638;11.070;2023-04-08T05:17:16;98545.81;;;4.06;90.30
70445;BME280;57902;49.638;11.070;2023-04-08T05:19:42;98552.63;;;4.02;90.98
70445;BME280;57902;49.638;11.070;2023-04-08T05:22:08;98556.03;;;4.11;90.72
70445;BME280;57902;49.638;11.070;2023-04-08T05:24:35;98550.91;;;4.14;91.84
70445;BME280;57902;49.638;11.070;2023-04-08T05:27:01;98554.34;;;4.16;91.51
70445;BME280;57902;49.638;11.070;2023-04-08T05:29:28;98560.28;;;4.24;92.06
70445;BME280;57902;49.638;11.070;2023-04-08T05:31:54;98564.53;;;4.28;93.07
70445;BME280;57902;49.638;11.070;2023-04-08T05:34:21;98559.44;;;4.31;93.77
70445;BME280;57902;49.638;11.070;2023-04-08T05:36:49;98573.06;;;4.35;93.59
70445;BME280;57902;49.638;11.070;2023-04-08T05:39:18;98562.84;;;4.33;93.76
70445;BME280;57902;49.638;11.070;2023-04-08T05:41:45;98565.41;;;4.30;95.11
70445;BME280;57902;49.638;11.070;2023-04-08T05:44:12;98568.78;;;4.26;95.66
70445;BME280;57902;49.638;11.070;2023-04-08T05:46:41;98572.19;;;4.34;96.08
70445;BME280;57902;49.638;11.070;2023-04-08T05:49:08;98570.50;;;4.44;96.50
70445;BME280;57902;49.638;11.070;2023-04-08T05:51:34;98575.59;;;4.40;97.77
70445;BME280;57902;49.638;11.070;2023-04-08T05:54:01;98574.75;;;4.28;98.50
70445;BME280;57902;49.638;11.070;2023-04-08T05:56:27;98581.53;;;4.42;99.24
70445;BME280;57902;49.638;11.070;2023-04-08T05:58:54;98584.09;;;4.42;100.00
70445;BME280;57902;49.638;11.070;2023-04-08T06:01:20;98588.38;;;4.43;100.00
70445;BME280;57902;49.638;11.070;2023-04-08T06:03:47;98589.22;;;4.37;100.00
70445;BME280;57902;49.638;11.070;2023-04-08T06:06:14;98593.47;;;4.40;100.00
70445;BME280;57902;49.638;11.070;2023-04-08T06:08:41;98596.84;;;4.45;100.00
70445;BME280;57902;49.638;11.070;2023-04-08T06:11:07;98596.88;;;4.42;100.00
70445;BME280;57902;49.638;11.070;2023-04-08T06:13:34;98596.03;;;4.43;100.00
70445;BME280;57902;49.638;11.070;2023-04-08T06:16:10;98596.03;;;4.43;100.00
70445;BME280;57902;49.638;11.070;2023-04-08T06:18:37;98591.75;;;4.37;100.00
70445;BME280;57902;49.638;11.070;2023-04-08T06:21:04;98601.13;;;4.38;100.00
70445;BME280;57902;49.638;11.070;2023-04-08T06:23:31;98600.25;;;4.36;100.00
70445;BME280;57902;49.638;11.070;2023-04-08T06:26:01;98601.13;;;4.43;100.00
70445;BME280;57902;49.638;11.070;2023-04-08T06:28:30;98607.94;;;4.39;100.00
70445;BME280;57902;49.638;11.070;2023-04-08T06:30:57;98600.28;;;4.47;100.00
70445;BME280;57902;49.638;11.070;2023-04-08T06:33:24;98605.38;;;4.58;100.00
70445;BME280;57902;49.638;11.070;2023-04-08T06:35:50;98611.34;;;4.30;100.00
70445;BME280;57902;49.638;11.070;2023-04-08T06:38:17;98616.44;;;4.36;100.00
70445;BME280;57902;49.638;11.070;2023-04-08T06:40:43;98608.75;;;4.18;100.00
70445;BME280;57902;49.638;11.070;2023-04-08T06:43:10;98618.97;;;4.04;100.00
70445;BME280;57902;49.638;11.070;2023-04-08T06:45:36;98621.50;;;4.09;100.00
70445;BME280;57902;49.638;11.070;2023-04-08T06:48:03;98623.22;;;4.17;100.00
70445;BME280;57902;49.638;11.070;2023-04-08T06:50:30;98616.41;;;4.19;100.00
70445;BME280;57902;49.638;11.070;2023-04-08T06:52:56;98616.41;;;4.27;100.00
70445;BME280;57902;49.638;11.070;2023-04-08T06:55:23;98619.84;;;4.40;100.00
70445;BME280;57902;49.638;11.070;2023-04-08T06:57:49;98629.19;;;4.47;100.00
70445;BME280;57902;49.638;11.070;2023-04-08T07:00:16;98629.19;;;4.56;100.00
70445;BME280;57902;49.638;11.070;2023-04-08T07:02:42;98630.06;;;4.55;100.00
70445;BME280;57902;49.638;11.070;2023-04-08T07:05:09;98621.56;;;4.58;100.00
70445;BME280;57902;49.638;11.070;2023-04-08T07:07:35;98631.78;;;4.61;100.00
70445;BME280;57902;49.638;11.070;2023-04-08T07:10:02;98631.75;;;4.73;100.00
70445;BME280;57902;49.638;11.070;2023-04-08T07:12:29;98636.00;;;4.79;100.00
70445;BME280;57902;49.638;11.070;2023-04-08T07:14:56;98636.00;;;4.81;100.00
70445;BME280;57902;49.638;11.070;2023-04-08T07:17:22;98636.84;;;4.81;100.00
70445;BME280;57902;49.638;11.070;2023-04-08T07:19:49;98648.78;;;4.78;100.00
70445;BME280;57902;49.638;11.070;2023-04-08T07:22:15;98643.69;;;4.79;100.00
70445;BME280;57902;49.638;11.070;2023-04-08T07:24:42;98646.25;;;4.68;100.00
70445;BME280;57902;49.638;11.070;2023-04-08T07:27:10;98656.47;;;4.68;100.00
70445;BME280;57902;49.638;11.070;2023-04-08T07:29:37;98656.44;;;4.59;100.00
70445;BME280;57902;49.638;11.070;2023-04-08T07:32:03;98659.00;;;4.53;100.00
70445;BME280;57902;49.638;11.070;2023-04-08T07:34:30;98664.09;;;4.56;100.00
70445;BME280;57902;49.638;11.070;2023-04-08T07:36:57;98662.38;;;4.52;100.00
70445;BME280;57902;49.638;11.070;2023-04-08T07:39:23;98669.22;;;4.50;100.00
70445;BME280;57902;49.638;11.070;2023-04-08T07:41:49;98662.41;;;4.58;100.00
70445;BME280;57902;49.638;11.070;2023-04-08T07:44:19;98671.75;;;4.61;100.00
70445;BME280;57902;49.638;11.070;2023-04-08T07:46:45;98670.06;;;4.64;100.00
70445;BME280;57902;49.638;11.070;2023-04-08T07:49:16;98670.91;;;4.71;100.00
70445;BME280;57902;49.638;11.070;2023-04-08T07:51:42;98676.03;;;4.72;100.00
70445;BME280;57902;49.638;11.070;2023-04-08T07:54:09;98677.72;;;4.69;100.00
70445;BME280;57902;49.638;11.070;2023-04-08T07:56:37;98673.47;;;4.65;100.00
70445;BME280;57902;49.638;11.070;2023-04-08T07:59:05;98678.56;;;4.68;100.00
70445;BME280;57902;49.638;11.070;2023-04-08T08:01:32;98678.56;;;4.74;100.00
70445;BME280;57902;49.638;11.070;2023-04-08T08:04:47;98677.75;;;4.90;100.00
70445;BME280;57902;49.638;11.070;2023-04-08T08:07:22;98685.41;;;4.89;100.00
70445;BME280;57902;49.638;11.070;2023-04-08T08:09:49;98687.97;;;4.92;100.00
70445;BME280;57902;49.638;11.070;2023-04-08T08:12:15;98683.69;;;4.96;100.00
70445;BME280;57902;49.638;11.070;2023-04-08T08:14:41;98690.50;;;4.98;100.00
70445;BME280;57902;49.638;11.070;2023-04-08T08:17:08;98689.63;;;4.93;100.00
70445;BME280;57902;49.638;11.070;2023-04-08T08:19:34;98695.63;;;4.94;100.00
70445;BME280;57902;49.638;11.070;2023-04-08T08:22:01;98698.16;;;5.03;100.00
70445;BME280;57902;49.638;11.070;2023-04-08T08:24:43;98698.16;;;4.98;100.00
70445;BME280;57902;49.638;11.070;2023-04-08T08:27:45;98693.88;;;5.19;100.00
70445;BME280;57902;49.638;11.070;2023-04-08T08:30:31;98704.97;;;5.18;100.00
70445;BME280;57902;49.638;11.070;2023-04-08T08:33:25;98704.97;;;5.27;100.00
70445;BME280;57902;49.638;11.070;2023-04-08T08:35:59;98704.97;;;5.29;100.00
70445;BME280;57902;49.638;11.070;2023-04-08T08:38:31;98710.91;;;5.34;100.00
70445;BME280;57902;49.638;11.070;2023-04-08T08:41:09;98706.63;;;5.36;100.00
70445;BME280;57902;49.638;11.070;2023-04-08T08:43:44;98701.53;;;5.30;100.00
70445;BME280;57902;49.638;11.070;2023-04-08T08:46:47;98706.66;;;5.22;100.00
70445;BME280;57902;49.638;11.070;2023-04-08T08:49:40;98709.19;;;5.36;100.00
70445;BME280;57902;49.638;11.070;2023-04-08T08:52:17;98704.09;;;5.40;100.00
70445;BME280;57902;49.638;11.070;2023-04-08T08:54:58;98708.31;;;5.44;100.00
70445;BME280;57902;49.638;11.070;2023-04-08T09:00:30;98717.66;;;5.53;100.00
70445;BME280;57902;49.638;11.070;2023-04-08T09:06:00;98720.22;;;5.55;100.00
70445;BME280;57902;49.638;11.070;2023-04-08T09:08:36;98713.38;;;5.69;100.00
70445;BME280;57902;49.638;11.070;2023-04-08T09:11:19;98721.06;;;5.65;100.00
70445;BME280;57902;49.638;11.070;2023-04-08T09:13:59;98724.50;;;5.50;100.00
70445;BME280;57902;49.638;11.070;2023-04-08T09:16:32;98731.34;;;5.38;100.00
70445;BME280;57902;49.638;11.070;2023-04-08T09:19:13;98732.16;;;5.60;100.00
70445;BME280;57902;49.638;11.070;2023-04-08T09:21:42;98722.69;;;5.86;100.00
70445;BME280;57902;49.638;11.070;2023-04-08T09:24:30;98725.22;;;6.07;100.00
70445;BME280;57902;49.638;11.070;2023-04-08T09:27:00;98714.84;;;6.32;100.00
70445;BME280;57902;49.638;11.070;2023-04-08T09:32:55;98723.19;;;6.65;100.00
70445;BME280;57902;49.638;11.070;2023-04-08T09:35:49;98737.75;;;6.60;100.00
70445;BME280;57902;49.638;11.070;2023-04-08T09:39:05;98736.91;;;6.56;100.00
70445;BME280;57902;49.638;11.070;2023-04-08T09:41:56;98731.78;;;6.53;100.00
70445;BME280;57902;49.638;11.070;2023-04-08T09:44:51;98736.88;;;6.61;100.00
70445;BME280;57902;49.638;11.070;2023-04-08T09:47:35;98731.66;;;6.75;100.00
70445;BME280;57902;49.638;11.070;2023-04-08T09:50:04;98736.78;;;6.76;100.00
70445;BME280;57902;49.638;11.070;2023-04-08T09:52:38;98734.22;;;6.76;98.91
70445;BME280;57902;49.638;11.070;2023-04-08T09:55:12;98736.00;;;6.68;98.81
70445;BME280;57902;49.638;11.070;2023-04-08T09:58:01;98747.09;;;6.67;98.74
70445;BME280;57902;49.638;11.070;2023-04-08T10:00:40;98742.88;;;6.60;99.17
70445;BME280;57902;49.638;11.070;2023-04-08T10:05:53;98742.84;;;6.63;98.81
70445;BME280;57902;49.638;11.070;2023-04-08T10:08:23;98740.31;;;6.60;98.79
70445;BME280;57902;49.638;11.070;2023-04-08T10:10:53;98736.88;;;6.61;99.10
70445;BME280;57902;49.638;11.070;2023-04-08T10:13:23;98731.63;;;6.78;98.15
70445;BME280;57902;49.638;11.070;2023-04-08T10:18:43;98739.03;;;7.15;97.16
70445;BME280;57902;49.638;11.070;2023-04-08T10:21:29;98731.34;;;7.16;96.24
70445;BME280;57902;49.638;11.070;2023-04-08T10:23:59;98730.31;;;7.38;98.05
70445;BME280;57902;49.638;11.070;2023-04-08T10:26:38;98725.84;;;7.57;97.11
70445;BME280;57902;49.638;11.070;2023-04-08T10:31:51;98728.50;;;8.20;92.90
70445;BME280;57902;49.638;11.070;2023-04-08T10:34:28;98729.84;;;8.52;89.73
70445;BME280;57902;49.638;11.070;2023-04-08T10:37:04;98729.63;;;8.68;89.37
70445;BME280;57902;49.638;11.070;2023-04-08T10:39:47;98727.69;;;8.81;88.25
70445;BME280;57902;49.638;11.070;2023-04-08T10:42:26;98725.91;;;8.87;87.91
70445;BME280;57902;49.638;11.070;2023-04-08T10:45:01;98725.09;;;8.84;86.54
70445;BME280;57902;49.638;11.070;2023-04-08T10:47:29;98722.63;;;8.76;86.83
70445;BME280;57902;49.638;11.070;2023-04-08T10:52:54;98717.75;;;8.59;88.36
70445;BME280;57902;49.638;11.070;2023-04-08T10:55:27;98728.91;;;8.58;87.99
70445;BME280;57902;49.638;11.070;2023-04-08T10:58:09;98724.78;;;8.46;88.03
70445;BME280;57902;49.638;11.070;2023-04-08T11:00:41;98722.19;;;8.49;86.79
70445;BME280;57902;49.638;11.070;2023-04-08T11:03:11;98716.22;;;8.43;87.24
70445;BME280;57902;49.638;11.070;2023-04-08T11:05:43;98715.56;;;8.30;87.92
70445;BME280;57902;49.638;11.070;2023-04-08T11:08:13;98715.59;;;8.25;87.44
70445;BME280;57902;49.638;11.070;2023-04-08T11:10:45;98725.72;;;8.37;88.02
70445;BME280;57902;49.638;11.070;2023-04-08T11:13:15;98721.69;;;8.19;86.33
70445;BME280;57902;49.638;11.070;2023-04-08T11:15:52;98719.94;;;8.21;86.51
70445;BME280;57902;49.638;11.070;2023-04-08T11:18:22;98722.91;;;7.89;88.49
70445;BME280;57902;49.638;11.070;2023-04-08T11:20:54;98720.00;;;8.18;86.56
70445;BME280;57902;49.638;11.070;2023-04-08T11:23:26;98729.03;;;7.77;88.48
70445;BME280;57902;49.638;11.070;2023-04-08T11:25:56;98728.06;;;7.89;89.50
70445;BME280;57902;49.638;11.070;2023-04-08T11:28:30;98726.97;;;8.07;88.76
70445;BME280;57902;49.638;11.070;2023-04-08T11:31:01;98733.84;;;8.06;87.85
70445;BME280;57902;49.638;11.070;2023-04-08T11:33:32;98736.69;;;7.80;89.38
70445;BME280;57902;49.638;11.070;2023-04-08T11:36:04;98732.25;;;7.95;86.94
70445;BME280;57902;49.638;11.070;2023-04-08T11:38:38;98725.44;;;7.94;88.20
70445;BME280;57902;49.638;11.070;2023-04-08T11:41:10;98728.72;;;8.05;87.75
70445;BME280;57902;49.638;11.070;2023-04-08T11:43:50;98721.88;;;8.04;88.19
70445;BME280;57902;49.638;11.070;2023-04-08T11:46:21;98717.66;;;7.98;89.22
70445;BME280;57902;49.638;11.070;2023-04-08T11:49:00;98731.16;;;8.16;88.22
70445;BME280;57902;49.638;11.070;2023-04-08T11:51:30;98723.34;;;8.23;88.12
70445;BME280;57902;49.638;11.070;2023-04-08T11:54:05;98730.63;;;7.87;88.81
70445;BME280;57902;49.638;11.070;2023-04-08T11:56:47;98727.06;;;8.01;88.41
70445;BME280;57902;49.638;11.070;2023-04-08T11:59:16;98723.53;;;8.08;87.22
70445;BME280;57902;49.638;11.070;2023-04-08T12:01:58;98721.97;;;7.98;87.01
70445;BME280;57902;49.638;11.070;2023-04-08T12:04:58;98725.66;;;7.72;89.01
70445;BME280;57902;49.638;11.070;2023-04-08T12:07:25;98730.78;;;7.72;89.40
70445;BME280;57902;49.638;11.070;2023-04-08T12:09:55;98716.41;;;7.59;89.37
70445;BME280;57902;49.638;11.070;2023-04-08T12:12:24;98729.25;;;7.56;89.92
70445;BME280;57902;49.638;11.070;2023-04-08T12:14:55;98723.31;;;7.53;90.81
70445;BME280;57902;49.638;11.070;2023-04-08T12:17:22;98734.38;;;7.56;91.67
70445;BME280;57902;49.638;11.070;2023-04-08T12:19:48;98736.09;;;7.57;90.84
70445;BME280;57902;49.638;11.070;2023-04-08T12:22:15;98739.75;;;7.31;92.18
70445;BME280;57902;49.638;11.070;2023-04-08T12:24:42;98732.81;;;7.42;92.48
70445;BME280;57902;49.638;11.070;2023-04-08T12:27:11;98739.75;;;7.31;92.67
70445;BME280;57902;49.638;11.070;2023-04-08T12:29:37;98732.75;;;7.47;93.24
70445;BME280;57902;49.638;11.070;2023-04-08T12:32:04;98735.88;;;7.80;90.79
70445;BME280;57902;49.638;11.070;2023-04-08T12:34:31;98732.25;;;7.95;88.01
70445;BME280;57902;49.638;11.070;2023-04-08T12:36:58;98749.31;;;8.02;86.46
70445;BME280;57902;49.638;11.070;2023-04-08T12:39:25;98729.28;;;8.27;85.30
70445;BME280;57902;49.638;11.070;2023-04-08T12:41:51;98737.94;;;8.21;82.49
70445;BME280;57902;49.638;11.070;2023-04-08T12:44:25;98740.38;;;8.31;83.39
70445;BME280;57902;49.638;11.070;2023-04-08T12:46:52;98733.22;;;8.57;81.56
70445;BME280;57902;49.638;11.070;2023-04-08T12:49:20;98738.50;;;8.44;80.57
70445;BME280;57902;49.638;11.070;2023-04-08T12:51:48;98742.72;;;8.51;78.83
70445;BME280;57902;49.638;11.070;2023-04-08T12:54:15;98744.06;;;8.77;77.08
70445;BME280;57902;49.638;11.070;2023-04-08T12:56:45;98735.00;;;8.51;75.52
70445;BME280;57902;49.638;11.070;2023-04-08T12:59:20;98744.13;;;8.70;75.19
70445;BME280;57902;49.638;11.070;2023-04-08T13:01:49;98744.44;;;9.08;73.25
70445;BME280;57902;49.638;11.070;2023-04-08T13:04:16;98745.63;;;8.87;72.77
70445;BME280;57902;49.638;11.070;2023-04-08T13:06:44;98744.53;;;9.02;72.86
70445;BME280;57902;49.638;11.070;2023-04-08T13:09:13;98743.81;;;9.45;69.68
70445;BME280;57902;49.638;11.070;2023-04-08T13:11:40;98742.22;;;9.38;70.72
70445;BME280;57902;49.638;11.070;2023-04-08T13:14:07;98742.50;;;9.22;71.44
70445;BME280;57902;49.638;11.070;2023-04-08T13:16:34;98743.34;;;9.21;70.36
70445;BME280;57902;49.638;11.070;2023-04-08T13:19:00;98739.94;;;9.21;70.20
70445;BME280;57902;49.638;11.070;2023-04-08T13:21:29;98748.16;;;8.90;71.38
70445;BME280;57902;49.638;11.070;2023-04-08T13:23:59;98748.47;;;9.23;70.10
70445;BME280;57902;49.638;11.070;2023-04-08T13:26:26;98745.50;;;9.46;70.11
70445;BME280;57902;49.638;11.070;2023-04-08T13:29:04;98749.34;;;9.70;67.89
70445;BME280;57902;49.638;11.070;2023-04-08T13:31:32;98747.28;;;9.89;67.64
70445;BME280;57902;49.638;11.070;2023-04-08T13:33:58;98753.09;;;9.54;67.84
70445;BME280;57902;49.638;11.070;2023-04-08T13:36:25;98749.09;;;9.37;68.22
70445;BME280;57902;49.638;11.070;2023-04-08T13:38:56;98741.22;;;8.93;69.84
70445;BME280;57902;49.638;11.070;2023-04-08T13:41:27;98745.00;;;9.25;69.25